Time;durP1;ratioP1;P1;durP2;ratioP2;P2;SDS_P1;SDS_P2;PMS_P1;PMS_P2;Temp;Humidity;BMP_temperature;BMP_pressure;BME280_temperature;BME280_humidity;BME280_pressure;Samples;Min_cycle;Max_cycle;Signal;HPM_P1;HPM_P2
2022/07/05 00:02:21;;;;;;;;;22.00;20.40;;;;;29.52;42.14;98751.78;6228822;27;99404;-60
2022/07/05 00:05:24;;;;;;;;;22.00;20.00;;;;;29.35;42.37;98745.66;6245451;27;97722;-61
2022/07/05 00:08:28;;;;;;;;;20.50;20.50;;;;;29.31;42.43;98745.56;6264942;27;97625;-61
2022/07/05 00:11:32;;;;;;;;;23.50;22.75;;;;;29.31;42.42;98742.78;6247743;27;97440;-60
2022/07/05 00:14:36;;;;;;;;;23.80;22.20;;;;;29.32;42.60;98738.06;6264973;27;97384;-60
2022/07/05 00:17:40;;;;;;;;;24.60;22.00;;;;;29.29;42.80;98740.31;6264976;27;96498;-61
2022/07/05 00:20:45;;;;;;;;;18.60;17.00;;;;;29.28;42.77;98737.88;6264316;27;97520;-60
2022/07/05 00:23:48;;;;;;;;;21.00;20.50;;;;;29.27;42.83;98737.06;6262746;27;96905;-60
2022/07/05 00:26:52;;;;;;;;;21.00;21.00;;;;;29.28;42.71;98735.09;6265048;27;97006;-62
2022/07/05 00:29:55;;;;;;;;;22.20;21.20;;;;;29.26;42.47;98737.44;6265050;27;96952;-62
2022/07/05 00:33:02;;;;;;;;;20.60;20.00;;;;;29.23;42.56;98738.13;6264711;27;96371;-62
2022/07/05 00:36:06;;;;;;;;;20.67;19.67;;;;;29.22;42.33;98745.63;6265617;27;96766;-60
2022/07/05 00:39:09;;;;;;;;;19.60;19.60;;;;;29.23;42.61;98749.22;6264521;27;97466;-60
2022/07/05 00:42:13;;;;;;;;;23.75;22.25;;;;;29.24;42.95;98756.41;6262633;27;97128;-60
2022/07/05 00:45:16;;;;;;;;;21.00;20.20;;;;;29.24;42.77;98753.63;6264451;27;97397;-62
2022/07/05 00:48:21;;;;;;;;;19.00;18.00;;;;;29.27;42.58;98764.84;6229181;27;97717;-60
2022/07/05 00:51:26;;;;;;;;;21.00;20.00;;;;;29.27;42.54;98766.84;6262142;27;97517;-60
2022/07/05 00:54:32;;;;;;;;;20.00;20.00;;;;;29.28;43.31;98782.31;6245883;27;97454;-61
2022/07/05 00:57:36;;;;;;;;;19.75;19.00;;;;;29.28;42.65;98787.88;6246661;27;98123;-59
2022/07/05 01:00:39;;;;;;;;;18.80;18.00;;;;;29.29;42.11;98792.28;6246137;27;96838;-54
2022/07/05 01:03:45;;;;;;;;;19.00;19.00;;;;;29.35;42.24;98781.78;6264345;27;96490;-55
2022/07/05 01:06:50;;;;;;;;;22.00;20.00;;;;;29.44;42.01;98779.69;6246061;27;97774;-57
2022/07/05 01:09:54;;;;;;;;;19.00;18.00;;;;;29.50;40.68;98781.88;6263993;27;97505;-61
2022/07/05 01:12:57;;;;;;;;;14.00;14.00;;;;;29.56;37.97;98782.47;6263352;27;96995;-59
2022/07/05 01:16:00;;;;;;;;;14.40;14.00;;;;;29.61;37.71;98790.56;6264255;27;96884;-59
2022/07/05 01:19:07;;;;;;;;;15.50;15.00;;;;;29.59;38.95;98787.31;6263283;27;98125;-58
2022/07/05 01:22:17;;;;;;;;;19.20;18.20;;;;;29.52;41.09;98782.31;6263334;27;97556;-62
2022/07/05 01:25:24;;;;;;;;;19.00;18.80;;;;;29.50;42.18;98786.63;6263245;27;96694;-63
2022/07/05 01:28:28;;;;;;;;;18.00;17.00;;;;;29.46;41.14;98777.38;6244915;27;97009;-64
2022/07/05 01:31:31;;;;;;;;;19.60;18.40;;;;;29.44;42.34;98769.38;6263187;27;97409;-59
2022/07/05 01:34:38;;;;;;;;;20.25;18.00;;;;;29.44;41.28;98769.38;6262274;27;96598;-60
2022/07/05 01:37:42;;;;;;;;;15.00;14.00;;;;;29.48;41.38;98766.72;6239123;28;97429;-60
2022/07/05 01:40:50;;;;;;;;;20.60;18.60;;;;;29.51;41.24;98766.84;6247675;27;97327;-58
2022/07/05 01:43:53;;;;;;;;;19.00;19.00;;;;;29.53;40.12;98766.47;6244901;27;97398;-57
2022/07/05 01:47:03;;;;;;;;;16.00;15.00;;;;;29.55;40.77;98773.31;6263872;27;96770;-60
2022/07/05 01:50:08;;;;;;;;;16.00;16.00;;;;;29.51;41.03;98743.81;6245202;27;97008;-57
2022/07/05 01:53:19;;;;;;;;;18.00;16.33;;;;;29.74;39.55;98771.88;6235983;27;96543;-56
2022/07/05 01:56:25;;;;;;;;;17.40;17.00;;;;;29.81;39.93;98780.44;6222265;28;97403;-53
2022/07/05 01:59:28;;;;;;;;;18.60;17.60;;;;;29.87;39.61;98771.50;6240550;27;96827;-59
2022/07/05 02:02:32;;;;;;;;;18.00;16.00;;;;;29.96;39.57;98774.97;6244012;27;98246;-56
2022/07/05 02:05:35;;;;;;;;;12.00;12.00;;;;;29.97;38.76;98765.47;6262874;27;97459;-56
2022/07/05 02:08:39;;;;;;;;;12.75;12.75;;;;;30.02;38.69;98759.66;6245240;27;97019;-58
2022/07/05 02:11:46;;;;;;;;;15.00;15.00;;;;;30.08;38.75;98757.44;6245421;27;96629;-54
2022/07/05 02:14:50;;;;;;;;;17.00;16.00;;;;;30.13;37.83;98757.19;6245068;27;97823;-54
2022/07/05 02:17:55;;;;;;;;;12.20;12.20;;;;;30.19;38.43;98753.00;6245768;27;96595;-51
2022/07/05 02:20:58;;;;;;;;;15.00;14.00;;;;;30.24;38.42;98752.75;6262673;27;96798;-56
2022/07/05 02:24:02;;;;;;;;;13.00;13.00;;;;;30.25;38.19;98761.91;6263531;27;97004;-57
2022/07/05 02:27:10;;;;;;;;;20.00;18.00;;;;;30.25;37.50;98759.13;6245860;27;96522;-61
2022/07/05 02:30:14;;;;;;;;;18.00;17.00;;;;;30.25;37.45;98764.69;6262574;27;96853;-55
2022/07/05 02:33:18;;;;;;;;;14.00;14.00;;;;;30.23;37.26;98765.03;6243370;27;97522;-59
2022/07/05 02:36:22;;;;;;;;;14.00;14.00;;;;;30.22;37.23;98774.53;6261634;27;97392;-60
2022/07/05 02:39:25;;;;;;;;;14.50;14.50;;;;;30.21;38.23;98772.09;6263410;27;96631;-55
2022/07/05 02:42:34;;;;;;;;;16.00;16.00;;;;;30.20;37.78;98779.66;6260576;27;97391;-61
2022/07/05 02:45:37;;;;;;;;;16.00;16.00;;;;;30.16;37.35;98784.28;6244714;27;96417;-58
2022/07/05 02:48:41;;;;;;;;;17.00;16.40;;;;;30.12;37.58;98786.16;6244246;27;96864;-59
2022/07/05 02:51:44;;;;;;;;;17.00;16.00;;;;;30.08;37.16;98788.84;6263465;27;96899;-60
2022/07/05 02:54:49;;;;;;;;;15.40;15.20;;;;;30.01;37.71;98791.41;6244491;27;96869;-59
2022/07/05 02:57:57;;;;;;;;;14.20;14.20;;;;;29.95;37.68;98794.81;6242760;27;97579;-58
2022/07/05 03:01:04;;;;;;;;;16.00;15.00;;;;;29.89;37.71;98790.63;6243251;27;96993;-59
2022/07/05 03:04:12;;;;;;;;;16.00;16.00;;;;;29.85;38.23;98800.81;6245238;27;96985;-59
2022/07/05 03:07:21;;;;;;;;;13.00;13.00;;;;;29.83;38.88;98814.25;6266172;27;96902;-61
2022/07/05 03:10:26;;;;;;;;;11.75;11.75;;;;;29.76;39.45;98820.41;6265377;27;96893;-62
2022/07/05 03:13:32;;;;;;;;;18.00;17.00;;;;;29.69;40.73;98820.16;6248840;27;96666;-63
2022/07/05 03:16:38;;;;;;;;;12.60;12.60;;;;;29.55;41.31;98826.09;6264343;27;99554;-59
2022/07/05 03:19:42;;;;;;;;;14.00;14.00;;;;;29.42;40.81;98826.47;6231067;27;98476;-56
2022/07/05 03:22:48;;;;;;;;;14.75;13.00;;;;;29.41;40.90;98816.50;6248864;27;96421;-55
2022/07/05 03:25:55;;;;;;;;;14.00;14.00;;;;;29.46;43.33;98828.19;6249734;27;96862;-68
2022/07/05 03:29:00;;;;;;;;;12.60;11.60;;;;;29.38;43.25;98820.75;6230299;27;98189;-59
2022/07/05 03:32:04;;;;;;;;;14.40;12.40;;;;;29.35;42.32;98818.69;6263098;27;97651;-55
2022/07/05 03:35:08;;;;;;;;;13.00;12.00;;;;;29.43;42.07;98814.16;6266127;27;97461;-57
2022/07/05 03:38:12;;;;;;;;;11.00;11.00;;;;;29.50;42.34;98812.44;6264531;27;97134;-53
2022/07/05 03:41:16;;;;;;;;;13.00;13.00;;;;;29.53;42.34;98827.59;6247186;27;96546;-60
2022/07/05 03:44:21;;;;;;;;;15.00;14.20;;;;;29.43;43.46;98822.50;6247289;27;96747;-62
2022/07/05 03:47:25;;;;;;;;;13.00;12.20;;;;;29.37;42.91;98821.91;6245820;27;97403;-57
2022/07/05 03:50:29;;;;;;;;;15.00;14.00;;;;;29.44;42.72;98818.56;6266170;27;97547;-51
2022/07/05 03:53:32;;;;;;;;;10.00;9.50;;;;;29.34;42.88;98794.84;6265774;27;96664;-57
2022/07/05 03:56:37;;;;;;;;;13.67;13.00;;;;;29.56;42.33;98816.59;6246025;27;96725;-57
2022/07/05 03:59:47;;;;;;;;;13.50;13.50;;;;;29.57;42.79;98814.63;6239549;28;96566;-58
2022/07/05 04:02:53;;;;;;;;;12.20;12.20;;;;;29.56;42.69;98826.91;6254689;27;97274;-57
2022/07/05 04:05:57;;;;;;;;;10.40;10.40;;;;;29.57;42.23;98826.53;6257860;27;96808;-57
2022/07/05 04:09:03;;;;;;;;;13.40;13.40;;;;;29.57;43.17;98834.06;6245654;27;97535;-59
2022/07/05 04:12:08;;;;;;;;;13.00;12.80;;;;;29.42;43.65;98840.34;6244252;27;96786;-61
2022/07/05 04:15:15;;;;;;;;;13.80;13.80;;;;;29.34;43.83;98836.50;6246297;27;97344;-61
2022/07/05 04:18:18;;;;;;;;;15.20;13.20;;;;;29.29;43.75;98839.47;6243381;27;96803;-58
2022/07/05 04:21:23;;;;;;;;;13.00;12.00;;;;;29.31;42.92;98842.75;6246656;27;97394;-58
2022/07/05 04:24:27;;;;;;;;;13.20;12.20;;;;;29.38;43.53;98847.72;6245215;27;97808;-60
2022/07/05 04:27:30;;;;;;;;;11.40;11.40;;;;;29.41;42.89;98847.03;6243685;27;99619;-56
2022/07/05 04:30:36;;;;;;;;;13.00;13.00;;;;;29.46;43.26;98850.41;6264681;27;97379;-59
2022/07/05 04:33:40;;;;;;;;;12.00;11.40;;;;;29.50;43.10;98856.88;6246800;27;97372;-58
2022/07/05 04:36:46;;;;;;;;;10.00;10.00;;;;;29.50;43.05;98850.50;6260349;27;97307;-53
2022/07/05 04:39:49;;;;;;;;;10.00;10.00;;;;;29.51;42.83;98849.38;6246797;27;97543;-52
2022/07/05 04:42:53;;;;;;;;;9.80;9.00;;;;;29.49;42.40;98838.59;6245855;27;97413;-51
2022/07/05 04:45:58;;;;;;;;;11.00;11.00;;;;;29.53;42.75;98842.28;6246228;27;98329;-54
2022/07/05 04:49:02;;;;;;;;;10.40;9.80;;;;;29.55;42.28;98839.16;6243514;27;97605;-55
2022/07/05 04:52:06;;;;;;;;;9.60;9.60;;;;;29.54;42.69;98834.78;6263349;27;97204;-50
2022/07/05 04:55:10;;;;;;;;;8.80;8.80;;;;;29.49;42.62;98833.03;6246057;27;97251;-55
2022/07/05 04:58:14;;;;;;;;;9.60;9.60;;;;;29.57;42.74;98840.44;6262756;27;97458;-54
2022/07/05 05:01:19;;;;;;;;;10.00;10.00;;;;;29.57;42.33;98839.63;6261781;27;97178;-55
2022/07/05 05:04:22;;;;;;;;;10.00;9.00;;;;;29.61;42.71;98846.13;6263833;27;96924;-57
2022/07/05 05:07:26;;;;;;;;;9.00;9.00;;;;;29.58;42.96;98830.13;6264594;27;97481;-52
2022/07/05 05:10:29;;;;;;;;;10.50;10.00;;;;;29.62;42.65;98834.63;6260689;27;96478;-52
2022/07/05 05:13:32;;;;;;;;;9.00;8.60;;;;;29.65;42.95;98838.72;6260855;27;97523;-56
2022/07/05 05:16:37;;;;;;;;;9.00;9.00;;;;;29.64;42.97;98837.06;6264052;27;97080;-65
2022/07/05 05:19:41;;;;;;;;;9.00;9.00;;;;;29.61;42.91;98835.00;6263494;27;97531;-58
2022/07/05 05:22:45;;;;;;;;;9.20;8.80;;;;;29.53;43.37;98830.38;6261160;27;97527;-52
2022/07/05 05:25:49;;;;;;;;;10.00;10.00;;;;;29.56;43.47;98822.16;6264102;27;97098;-59
2022/07/05 05:28:52;;;;;;;;;13.00;13.00;;;;;29.56;43.03;98829.69;6262861;27;97405;-57
2022/07/05 05:31:57;;;;;;;;;10.00;10.00;;;;;29.53;43.21;98831.19;6261866;27;96958;-56
2022/07/05 05:35:01;;;;;;;;;8.00;8.00;;;;;29.53;43.05;98833.94;6261833;27;97539;-53
2022/07/05 05:38:04;;;;;;;;;10.00;10.00;;;;;29.50;43.04;98829.09;6260971;27;97205;-65
2022/07/05 05:41:07;;;;;;;;;12.67;12.00;;;;;29.47;43.67;98832.56;6261738;27;97101;-57
2022/07/05 05:44:11;;;;;;;;;14.00;13.00;;;;;29.40;43.62;98839.88;6262751;27;97150;-63
2022/07/05 05:47:15;;;;;;;;;12.00;11.00;;;;;29.27;44.56;98842.59;6260592;27;98324;-63
2022/07/05 05:50:20;;;;;;;;;13.50;13.50;;;;;29.16;44.57;98847.00;6261823;27;96968;-59
2022/07/05 05:53:25;;;;;;;;;21.40;21.40;;;;;29.04;45.19;98857.25;6263862;27;98608;-58
2022/07/05 05:56:32;;;;;;;;;15.00;13.00;;;;;28.95;45.45;98854.59;6263706;27;97388;-61
2022/07/05 05:59:35;;;;;;;;;13.20;12.80;;;;;28.86;45.68;98864.97;6244413;27;97175;-58
2022/07/05 06:02:40;;;;;;;;;14.80;14.40;;;;;28.69;46.23;98854.81;6262619;27;96892;-58
2022/07/05 06:05:44;;;;;;;;;15.20;15.20;;;;;28.68;46.68;98878.19;6263338;27;97482;-58
2022/07/05 06:08:47;;;;;;;;;13.00;12.20;;;;;28.58;46.84;98880.56;6263281;27;97021;-61
2022/07/05 06:11:51;;;;;;;;;14.40;14.40;;;;;28.51;46.95;98903.28;6263421;27;96823;-64
2022/07/05 06:14:54;;;;;;;;;14.00;14.00;;;;;28.45;47.44;98915.75;6263411;27;96906;-59
2022/07/05 06:17:59;;;;;;;;;15.00;13.00;;;;;28.49;47.24;98924.22;6262954;27;97509;-58
2022/07/05 06:21:02;;;;;;;;;13.80;13.80;;;;;28.48;47.93;98939.22;6261826;27;96891;-58
2022/07/05 06:24:06;;;;;;;;;11.00;11.00;;;;;28.51;47.39;98956.00;6243633;27;97553;-64
2022/07/05 06:27:09;;;;;;;;;13.00;12.60;;;;;28.56;47.33;98968.84;6244057;27;96691;-61
2022/07/05 06:30:16;;;;;;;;;14.25;13.25;;;;;28.59;47.71;98970.97;6261854;27;97577;-63
2022/07/05 06:33:20;;;;;;;;;15.40;14.60;;;;;28.60;47.99;98972.56;6243161;27;97632;-60
2022/07/05 06:36:24;;;;;;;;;15.50;14.50;;;;;28.58;48.39;98978.47;6259074;27;96619;-62
2022/07/05 06:39:30;;;;;;;;;16.00;15.00;;;;;28.54;48.58;98987.81;6260505;27;96869;-59
2022/07/05 06:42:33;;;;;;;;;14.00;14.00;;;;;28.52;48.54;98985.34;6258074;27;96629;-61
2022/07/05 06:45:38;;;;;;;;;14.00;14.00;;;;;28.48;48.62;98976.09;6263200;27;96552;-62
2022/07/05 06:48:43;;;;;;;;;14.50;14.00;;;;;28.46;49.07;98977.56;6244791;27;97557;-62
2022/07/05 06:51:46;;;;;;;;;13.80;13.80;;;;;28.44;48.88;98989.81;6261821;27;96790;-62
2022/07/05 06:54:50;;;;;;;;;14.60;14.00;;;;;28.41;48.69;98992.44;6262462;27;97154;-60
2022/07/05 06:57:59;;;;;;;;;15.40;14.40;;;;;28.38;49.57;98993.94;6262185;27;96911;-58
2022/07/05 07:01:17;;;;;;;;;14.00;13.75;;;;;28.37;49.25;98977.63;6262661;27;96762;-65
2022/07/05 07:04:24;;;;;;;;;14.00;13.00;;;;;28.33;49.61;98985.00;6262463;27;97444;-63
2022/07/05 07:10:57;;;;;;;;;14.00;13.00;;;;;28.34;49.45;98992.19;6262535;27;97225;-60
2022/07/05 07:14:01;;;;;;;;;12.00;11.00;;;;;28.34;49.63;98981.09;6243320;27;99494;-61
2022/07/05 07:17:04;;;;;;;;;12.00;12.00;;;;;28.35;49.75;98983.50;6262154;27;96260;-63
2022/07/05 07:20:10;;;;;;;;;16.00;16.00;;;;;28.36;49.89;98978.78;6262288;27;97240;-67
2022/07/05 07:23:16;;;;;;;;;12.00;12.00;;;;;28.36;49.72;98976.00;6237359;28;97812;-62
2022/07/05 07:26:19;;;;;;;;;12.00;11.60;;;;;28.36;50.30;98976.00;6237205;28;96950;-64
2022/07/05 07:29:23;;;;;;;;;13.00;13.00;;;;;28.35;49.87;98969.63;6237283;28;96832;-62
2022/07/05 07:32:26;;;;;;;;;15.50;14.50;;;;;28.36;50.79;98968.50;6233087;27;98009;-63
2022/07/05 07:35:31;;;;;;;;;12.20;12.20;;;;;28.37;50.01;98969.31;6227289;27;97761;-66
2022/07/05 07:38:34;;;;;;;;;14.00;12.50;;;;;28.31;49.54;98965.91;6261836;27;97439;-63
2022/07/05 07:41:38;;;;;;;;;13.40;13.00;;;;;28.35;50.10;98966.88;6261203;27;96566;-64
2022/07/05 07:44:41;;;;;;;;;14.00;13.00;;;;;28.36;50.16;98965.72;6243844;27;96890;-63
2022/07/05 07:47:45;;;;;;;;;11.80;11.80;;;;;28.35;49.78;98955.78;6226883;27;98758;-64
2022/07/05 07:50:50;;;;;;;;;14.60;13.80;;;;;28.41;50.86;98953.63;6261766;27;97460;-64
2022/07/05 07:53:53;;;;;;;;;13.60;12.00;;;;;28.44;50.70;98964.06;6248027;27;97582;-60
2022/07/05 07:57:06;;;;;;;;;14.00;13.00;;;;;28.46;50.43;98961.75;6266391;27;97558;-61
2022/07/05 08:00:13;;;;;;;;;13.00;13.00;;;;;28.52;51.25;98965.13;6265979;27;96926;-61
2022/07/05 08:03:16;;;;;;;;;13.50;13.50;;;;;28.55;50.54;98956.94;6247262;27;96770;-63
2022/07/05 08:06:21;;;;;;;;;13.00;13.00;;;;;28.61;50.33;98958.38;6266009;27;96885;-65
2022/07/05 08:09:24;;;;;;;;;11.20;11.00;;;;;28.67;49.59;98958.97;6265463;27;96846;-65
2022/07/05 08:12:27;;;;;;;;;13.60;13.00;;;;;28.67;47.85;98956.19;6247135;27;98613;-65
2022/07/05 08:15:31;;;;;;;;;12.00;12.00;;;;;28.67;46.83;98961.75;6230864;27;98471;-62
2022/07/05 08:21:57;;;;;;;;;12.00;12.00;;;;;28.66;47.83;98951.78;6265706;27;96848;-62
2022/07/05 08:25:00;;;;;;;;;15.00;15.00;;;;;28.64;48.41;98954.91;6247039;27;97539;-65
2022/07/05 08:28:04;;;;;;;;;15.40;14.40;;;;;28.64;48.06;98952.13;6265432;27;97521;-57
2022/07/05 08:31:07;;;;;;;;;14.40;14.40;;;;;28.63;48.64;98956.06;6264895;27;96633;-61
2022/07/05 08:34:11;;;;;;;;;12.00;12.00;;;;;28.60;48.88;98948.41;6265348;27;96556;-63
2022/07/05 08:37:18;;;;;;;;;13.00;12.20;;;;;28.60;48.68;98951.19;6265417;27;97414;-62
2022/07/05 08:40:26;;;;;;;;;15.00;14.00;;;;;28.57;48.99;98942.72;6265350;27;97970;-61
2022/07/05 08:43:30;;;;;;;;;16.75;16.50;;;;;28.54;49.06;98940.66;6247021;27;97174;-62
2022/07/05 08:46:38;;;;;;;;;15.00;14.00;;;;;28.51;48.56;98935.75;6265213;27;96704;-62
2022/07/05 08:49:41;;;;;;;;;16.00;15.00;;;;;28.48;48.42;98942.81;6244412;27;97592;-62
2022/07/05 08:52:47;;;;;;;;;14.00;13.60;;;;;28.49;49.20;98936.13;6264058;27;96969;-62
2022/07/05 08:55:50;;;;;;;;;16.00;15.00;;;;;28.47;49.46;98940.38;6264311;27;97989;-62
2022/07/05 08:58:53;;;;;;;;;16.60;15.60;;;;;28.52;50.25;98929.06;6263835;27;97530;-59
2022/07/05 09:01:57;;;;;;;;;14.50;14.00;;;;;28.54;50.77;98930.34;6243734;27;99760;-61
2022/07/05 09:05:04;;;;;;;;;19.00;19.00;;;;;28.62;50.03;98925.88;6245371;27;98057;-61
2022/07/05 09:08:10;;;;;;;;;17.40;16.40;;;;;28.53;50.32;98905.75;6264932;27;97168;-64
2022/07/05 09:11:16;;;;;;;;;15.25;14.75;;;;;28.68;50.63;98925.34;6245304;27;96589;-61
2022/07/05 09:14:22;;;;;;;;;17.00;15.00;;;;;28.75;51.43;98930.34;6262300;27;97558;-64
2022/07/05 09:17:31;;;;;;;;;15.00;13.00;;;;;28.79;50.37;98929.34;6260498;27;97124;-64
2022/07/05 09:20:34;;;;;;;;;15.00;14.00;;;;;28.82;50.11;98945.31;6227397;27;98441;-63
2022/07/05 09:23:40;;;;;;;;;13.00;13.00;;;;;28.76;50.49;98915.34;6261677;27;97285;-61
2022/07/05 09:26:45;;;;;;;;;14.60;14.60;;;;;28.93;50.45;98934.59;6262353;27;97941;-58
2022/07/05 09:29:56;;;;;;;;;14.00;14.00;;;;;28.95;49.43;98931.47;6241280;27;97281;-63
2022/07/05 09:33:07;;;;;;;;;15.00;15.00;;;;;28.93;48.38;98931.81;6243844;27;97377;-61
2022/07/05 09:36:11;;;;;;;;;14.00;14.00;;;;;28.91;49.00;98930.53;6241336;27;99658;-64
2022/07/05 09:39:16;;;;;;;;;15.00;14.60;;;;;28.87;48.67;98937.94;6262139;27;96875;-64
2022/07/05 09:42:23;;;;;;;;;13.40;12.00;;;;;28.89;49.32;98946.72;6261336;27;96636;-63
2022/07/05 09:45:26;;;;;;;;;13.00;12.00;;;;;28.88;48.77;98950.66;6261591;27;97472;-60
2022/07/05 09:48:32;;;;;;;;;14.00;14.00;;;;;28.87;48.80;98946.25;6263749;27;98110;-59
2022/07/05 09:51:50;;;;;;;;;13.00;12.00;;;;;28.86;48.67;98948.22;6263711;27;97555;-62
2022/07/05 09:55:09;;;;;;;;;14.00;12.80;;;;;28.87;48.95;98949.84;6263838;27;97410;-59
2022/07/05 09:58:13;;;;;;;;;14.00;12.20;;;;;28.87;48.68;98940.72;6263727;27;97674;-61
2022/07/05 10:01:27;;;;;;;;;14.00;14.00;;;;;28.91;49.10;98952.75;6262853;27;97388;-58
2022/07/05 10:04:30;;;;;;;;;14.00;14.00;;;;;28.94;49.46;98950.09;6244781;27;96851;-62
2022/07/05 10:07:36;;;;;;;;;14.00;13.00;;;;;28.92;48.88;98940.50;6262405;27;96976;-61
2022/07/05 10:10:44;;;;;;;;;13.20;12.60;;;;;28.92;48.90;98930.22;6262709;27;96841;-59
2022/07/05 10:13:50;;;;;;;;;14.00;13.50;;;;;29.04;49.62;98933.00;6228429;27;98580;-63
2022/07/05 10:17:00;;;;;;;;;13.50;13.50;;;;;29.10;48.78;98930.84;6245393;27;97445;-61
2022/07/05 10:20:09;;;;;;;;;12.60;12.60;;;;;29.16;49.24;98937.81;6263485;27;96847;-63
2022/07/05 10:23:14;;;;;;;;;13.00;12.40;;;;;29.21;49.32;98938.41;6263187;27;96744;-63
2022/07/05 10:26:19;;;;;;;;;13.40;12.40;;;;;29.27;49.15;98934.22;6243895;27;96983;-58
2022/07/05 10:29:23;;;;;;;;;14.40;14.40;;;;;29.31;49.71;98934.41;6245218;27;97462;-62
2022/07/05 10:32:29;;;;;;;;;16.40;15.00;;;;;29.37;48.55;98935.00;6262987;27;98034;-61
2022/07/05 10:35:33;;;;;;;;;14.60;14.20;;;;;29.38;48.12;98926.31;6263239;27;96889;-62
2022/07/05 10:38:38;;;;;;;;;12.00;12.00;;;;;29.42;48.35;98916.13;6262857;27;96468;-61
2022/07/05 10:41:44;;;;;;;;;15.00;14.40;;;;;29.48;48.11;98923.06;6244629;27;96644;-62
2022/07/05 10:44:47;;;;;;;;;12.00;12.00;;;;;29.52;46.99;98923.19;6263199;27;96903;-60
2022/07/05 10:48:16;;;;;;;;;14.00;13.00;;;;;29.57;46.60;98921.00;6262565;27;97132;-62
2022/07/05 10:51:20;;;;;;;;;15.00;14.60;;;;;29.59;46.37;98924.25;6263409;27;96648;-58
2022/07/05 10:54:23;;;;;;;;;15.60;14.60;;;;;29.60;47.04;98919.50;6262698;27;97066;-61
2022/07/05 10:57:28;;;;;;;;;13.60;13.60;;;;;29.62;46.25;98918.00;6244780;27;96446;-59
2022/07/05 11:00:31;;;;;;;;;16.00;15.00;;;;;29.65;46.23;98930.41;6262225;27;97051;-57
2022/07/05 11:03:36;;;;;;;;;12.00;11.33;;;;;29.65;46.82;98930.41;6244359;27;97452;-58
2022/07/05 11:06:49;;;;;;;;;13.00;13.00;;;;;29.66;47.49;98921.69;6244354;27;98218;-57
2022/07/05 11:10:03;;;;;;;;;18.50;16.75;;;;;29.72;47.82;98922.28;6244470;27;97392;-54
2022/07/05 11:13:38;;;;;;;;;13.20;12.00;;;;;29.73;47.40;98915.56;6261339;27;97426;-56
2022/07/05 11:16:41;;;;;;;;;14.00;13.00;;;;;29.73;46.83;98910.00;6246824;27;97363;-63
2022/07/05 11:20:05;;;;;;;;;14.80;14.00;;;;;29.75;47.46;98909.66;6244319;27;96911;-58
2022/07/05 11:23:11;;;;;;;;;12.25;12.00;;;;;29.86;48.16;98919.94;6261032;27;97583;-60
2022/07/05 11:26:17;;;;;;;;;13.00;11.20;;;;;29.84;47.09;98911.16;6246121;27;96957;-60
2022/07/05 11:29:43;;;;;;;;;13.60;12.00;;;;;29.93;46.95;98916.63;6246947;27;97137;-61
2022/07/05 11:32:47;;;;;;;;;14.00;13.00;;;;;29.96;46.57;98908.41;6254907;27;96903;-60
2022/07/05 11:35:50;;;;;;;;;14.00;13.00;;;;;30.03;46.34;98911.41;6247847;27;97609;-60
2022/07/05 11:39:12;;;;;;;;;12.00;11.00;;;;;29.99;47.20;98891.03;6266042;27;97415;-62
2022/07/05 11:42:21;;;;;;;;;14.60;14.60;;;;;30.23;47.39;98897.72;6264137;27;97513;-60
2022/07/05 11:45:25;;;;;;;;;13.00;12.00;;;;;30.17;46.74;98883.22;6265572;27;96599;-61
2022/07/05 11:48:30;;;;;;;;;15.00;14.00;;;;;30.34;47.03;98904.41;6265468;27;96337;-58
2022/07/05 11:51:33;;;;;;;;;16.40;15.00;;;;;30.38;47.24;98892.22;6264954;27;96470;-64
2022/07/05 11:54:37;;;;;;;;;13.75;13.75;;;;;30.42;47.86;98889.53;6265355;27;96388;-62
2022/07/05 11:57:51;;;;;;;;;13.20;12.80;;;;;30.44;47.79;98890.81;6230043;27;98572;-62
2022/07/05 12:00:56;;;;;;;;;16.50;16.00;;;;;30.45;47.66;98892.41;6261847;27;96916;-60
2022/07/05 12:04:00;;;;;;;;;16.00;15.00;;;;;30.42;48.35;98883.97;6258565;27;97987;-63
2022/07/05 12:07:05;;;;;;;;;15.60;14.00;;;;;30.42;47.83;98883.97;6265526;27;97567;-60
2022/07/05 12:13:52;;;;;;;;;18.20;16.00;;;;;30.34;47.01;98873.81;6239143;28;97426;-59
2022/07/05 12:17:15;;;;;;;;;17.00;17.00;;;;;30.45;47.70;98897.16;6239829;28;97433;-64
2022/07/05 12:20:27;;;;;;;;;15.00;15.00;;;;;30.43;47.24;98885.59;6259509;27;98313;-62
2022/07/05 12:23:30;;;;;;;;;16.00;15.00;;;;;30.43;47.08;98885.59;6265168;27;97071;-61
2022/07/05 12:26:34;;;;;;;;;16.00;15.00;;;;;30.42;47.91;98876.44;6265177;27;97612;-63
2022/07/05 12:29:37;;;;;;;;;19.00;18.25;;;;;30.39;47.95;98891.06;6264231;27;97025;-62
2022/07/05 12:33:02;;;;;;;;;17.00;17.00;;;;;30.33;47.94;98881.34;6264480;27;97564;-61
2022/07/05 12:36:12;;;;;;;;;20.00;18.00;;;;;30.29;47.61;98890.75;6264503;27;96376;-63
2022/07/05 12:39:17;;;;;;;;;20.00;19.00;;;;;30.25;48.20;98881.50;6264476;27;97267;-63
2022/07/05 12:42:34;;;;;;;;;23.00;21.00;;;;;30.18;48.63;98884.84;6264504;27;97166;-63
2022/07/05 12:45:38;;;;;;;;;19.00;18.00;;;;;30.11;48.83;98879.88;6245804;27;99560;-59
2022/07/05 12:48:43;;;;;;;;;20.00;20.00;;;;;30.05;48.70;98886.06;6245521;27;97908;-61
2022/07/05 12:51:47;;;;;;;;;20.00;18.60;;;;;29.97;48.32;98881.41;6264417;27;97335;-64
2022/07/05 12:58:33;;;;;;;;;18.50;18.00;;;;;29.83;48.85;98886.50;6264583;27;97454;-60
2022/07/05 13:01:39;;;;;;;;;15.75;14.75;;;;;29.78;49.01;98872.84;6262430;27;97467;-57
2022/07/05 13:04:54;;;;;;;;;17.00;16.00;;;;;29.74;48.43;98881.06;6238790;28;97828;-59
2022/07/05 13:07:58;;;;;;;;;13.00;13.00;;;;;29.68;49.48;98879.69;6239529;28;96925;-62
2022/07/05 13:11:03;;;;;;;;;16.00;15.40;;;;;29.63;49.37;98880.72;6259165;27;97617;-58
2022/07/05 13:14:07;;;;;;;;;17.40;16.00;;;;;29.59;49.42;98887.31;6246224;27;97395;-57
2022/07/05 13:17:13;;;;;;;;;13.00;12.50;;;;;29.54;49.53;98882.00;6263902;27;97529;-59
2022/07/05 13:20:20;;;;;;;;;14.00;14.00;;;;;29.53;49.50;98880.38;6264406;27;96433;-64
2022/07/05 13:23:24;;;;;;;;;15.00;15.00;;;;;29.55;50.22;98889.19;6264063;27;96506;-60
2022/07/05 13:26:28;;;;;;;;;14.40;14.40;;;;;29.58;50.32;98892.06;6245370;27;97773;-61
2022/07/05 13:29:34;;;;;;;;;14.00;13.00;;;;;29.63;50.24;98882.69;6263324;27;96987;-59
2022/07/05 13:32:38;;;;;;;;;14.00;14.00;;;;;29.69;50.28;98881.31;6245516;27;96931;-59
2022/07/05 13:35:42;;;;;;;;;14.00;13.25;;;;;29.79;49.75;98885.59;6245402;27;97438;-61
2022/07/05 13:38:46;;;;;;;;;14.67;14.00;;;;;29.88;49.82;98883.47;6240138;27;97643;-62
2022/07/05 13:41:51;;;;;;;;;15.00;13.00;;;;;29.96;49.97;98883.38;6262951;27;96406;-61
2022/07/05 13:44:54;;;;;;;;;14.00;14.00;;;;;30.00;49.63;98880.72;6263628;27;97416;-61
2022/07/05 13:47:58;;;;;;;;;11.60;11.60;;;;;30.02;49.21;98876.44;6227146;27;96806;-63
2022/07/05 13:51:03;;;;;;;;;10.40;9.40;;;;;30.03;48.82;98878.06;6262765;27;96549;-59
2022/07/05 13:54:06;;;;;;;;;11.40;11.00;;;;;30.02;49.42;98878.41;6262153;27;96725;-62
2022/07/05 13:57:09;;;;;;;;;10.00;9.00;;;;;29.91;47.81;98880.84;6263222;27;98086;-53
2022/07/05 14:00:13;;;;;;;;;9.50;8.00;;;;;29.89;47.06;98885.97;6263298;27;97606;-61
2022/07/05 14:03:17;;;;;;;;;10.00;9.60;;;;;29.85;47.23;98885.00;6262066;27;97428;-60
2022/07/05 14:06:22;;;;;;;;;10.00;10.00;;;;;29.80;46.92;98887.22;6262833;27;97428;-63
2022/07/05 14:09:26;;;;;;;;;8.75;8.00;;;;;29.77;46.88;98877.59;6262952;27;96980;-54
2022/07/05 14:12:31;;;;;;;;;8.00;8.00;;;;;29.71;47.08;98881.78;6263251;27;97091;-54
2022/07/05 14:15:34;;;;;;;;;11.40;10.40;;;;;29.76;47.12;98887.09;6262817;27;97362;-56
2022/07/05 14:18:38;;;;;;;;;9.00;9.00;;;;;29.78;47.06;98887.53;6262986;27;96444;-55
2022/07/05 14:21:46;;;;;;;;;9.00;9.00;;;;;29.80;47.01;98892.75;6263375;27;97069;-53
2022/07/05 14:24:50;;;;;;;;;11.25;11.25;;;;;29.86;46.57;98891.38;6262678;27;97439;-61
2022/07/05 14:27:54;;;;;;;;;7.00;7.00;;;;;29.90;46.14;98884.00;6244963;27;97963;-57
2022/07/05 14:30:57;;;;;;;;;8.00;8.00;;;;;29.81;46.02;98880.50;6262724;27;97264;-52